Time;durP1;ratioP1;P1;durP2;ratioP2;P2;SDS_P1;SDS_P2;PMS_P1;PMS_P2;Temp;Humidity;BMP_temperature;BMP_pressure;BME280_temperature;BME280_humidity;BME280_pressure;Samples;Min_cycle;Max_cycle;Signal;HPM_P1;HPM_P2
2023/07/09 08:52:39;;;;;;;;;;;24.60;99.90;;;;;;4571604;19;19922;-29
2023/07/09 08:54:15;;;;;;;;;;;24.60;99.90;;;;;;4589472;19;19953;-25
2023/07/09 08:55:47;;;;;;;;;;;24.40;99.90;;;;;;4591011;19;19938;-26
2023/07/09 08:57:29;;;;;;;;;;;24.40;99.90;;;;;;4590988;19;19919;-27
2023/07/09 08:59:01;;;;;;;;;;;24.40;99.90;;;;;;4591545;19;19970;-25
2023/07/09 09:00:37;;;;;;;;;;;24.40;99.90;;;;;;4591587;19;19914;-25
2023/07/09 09:02:14;;;;;;;;;;;24.40;99.90;;;;;;4591294;19;19933;-25
2023/07/09 09:03:50;;;;;;;;;;;24.40;99.90;;;;;;4591481;19;20320;-25
2023/07/09 09:05:22;;;;;;;;;;;24.50;99.90;;;;;;4591266;19;19987;-24
2023/07/09 09:07:06;;;;;;;;;;;24.40;99.90;;;;;;4589589;19;19974;-30
2023/07/09 09:08:40;;;;;;;;;;;24.50;99.90;;;;;;4592001;19;19937;-25
2023/07/09 09:10:31;;;;;;;;;;;24.50;99.90;;;;;;4591846;19;19915;-25
2023/07/09 09:12:11;;;;;;;;;;;24.50;99.90;;;;;;4592288;19;19915;-25
2023/07/09 09:13:42;;;;;;;;;;;24.50;99.90;;;;;;4592005;19;19922;-25
2023/07/09 09:15:15;;;;;;;;;;;24.40;99.90;;;;;;4590594;19;19918;-25
2023/07/09 09:16:48;;;;;;;;;;;24.50;99.90;;;;;;4590359;19;19919;-27
2023/07/09 09:18:21;;;;;;;;;;;24.40;99.90;;;;;;4590446;19;19935;-28
2023/07/09 09:19:53;;;;;;;;;;;24.30;99.90;;;;;;4591775;19;19918;-25
2023/07/09 09:21:29;;;;;;;;;;;24.30;99.90;;;;;;4590650;19;20233;-26
2023/07/09 09:23:07;;;;;;;;;;;24.20;99.90;;;;;;4590920;19;20364;-25
2023/07/09 09:26:44;;;;;;;;;;;24.30;99.90;;;;;;4589806;19;20328;-30
2023/07/09 09:28:16;;;;;;;;;;;24.30;99.90;;;;;;4592022;19;19925;-25
2023/07/09 09:29:50;;;;;;;;;;;24.40;99.90;;;;;;4590510;19;19919;-29
2023/07/09 09:31:32;;;;;;;;;;;24.30;99.90;;;;;;4590760;19;19915;-25
2023/07/09 09:33:07;;;;;;;;;;;24.20;99.90;;;;;;4591135;19;19933;-25
2023/07/09 09:34:41;;;;;;;;;;;24.30;99.90;;;;;;4588964;19;19923;-30
2023/07/09 09:36:24;;;;;;;;;;;24.30;99.90;;;;;;4590704;19;19910;-28
2023/07/09 09:37:57;;;;;;;;;;;24.30;99.90;;;;;;4590396;19;19978;-25
2023/07/09 09:39:28;;;;;;;;;;;24.30;99.90;;;;;;4590412;19;20296;-25
2023/07/09 09:41:00;;;;;;;;;;;24.30;99.90;;;;;;4591475;19;19937;-26
2023/07/09 09:42:32;;;;;;;;;;;24.40;99.90;;;;;;4591131;19;20265;-25
2023/07/09 09:44:05;;;;;;;;;;;24.40;99.90;;;;;;4590108;19;19915;-25
2023/07/09 09:45:42;;;;;;;;;;;24.40;99.90;;;;;;4589768;19;19922;-26
2023/07/09 09:47:14;;;;;;;;;;;24.40;99.90;;;;;;4590184;19;20255;-25
2023/07/09 09:48:47;;;;;;;;;;;24.40;99.90;;;;;;4590052;19;19931;-25
2023/07/09 09:50:21;;;;;;;;;;;24.40;99.90;;;;;;4590270;19;20309;-26
2023/07/09 09:51:56;;;;;;;;;;;24.40;99.90;;;;;;4591417;19;19922;-30
2023/07/09 09:53:28;;;;;;;;;;;24.40;99.90;;;;;;4590535;19;19981;-25
2023/07/09 09:55:05;;;;;;;;;;;24.40;99.90;;;;;;4591225;19;19918;-27
2023/07/09 09:56:37;;;;;;;;;;;24.40;99.90;;;;;;4589734;19;19983;-25
2023/07/09 09:58:12;;;;;;;;;;;24.40;99.90;;;;;;4590324;19;20374;-25
2023/07/09 09:59:44;;;;;;;;;;;24.40;99.90;;;;;;4589984;19;19932;-28
2023/07/09 10:01:16;;;;;;;;;;;24.40;99.90;;;;;;4589647;19;19929;-30
2023/07/09 10:02:50;;;;;;;;;;;24.40;99.90;;;;;;4589893;19;19915;-25
2023/07/09 10:04:21;;;;;;;;;;;24.40;99.90;;;;;;4590744;19;19915;-25
2023/07/09 10:06:25;;;;;;;;;;;24.40;99.90;;;;;;4590244;19;19986;-25
2023/07/09 10:08:22;;;;;;;;;;;24.40;99.90;;;;;;4588586;19;20672;-27
2023/07/09 10:09:54;;;;;;;;;;;24.40;99.90;;;;;;4588756;19;19954;-25
2023/07/09 10:11:28;;;;;;;;;;;24.40;99.90;;;;;;4588410;19;19922;-25
2023/07/09 10:13:06;;;;;;;;;;;24.40;99.90;;;;;;4588560;19;20276;-28
2023/07/09 10:14:37;;;;;;;;;;;24.40;99.90;;;;;;4588484;19;20280;-25
2023/07/09 10:16:29;;;;;;;;;;;24.40;99.90;;;;;;4588899;19;19927;-27
2023/07/09 10:18:03;;;;;;;;;;;24.30;99.90;;;;;;4588416;19;20329;-25
2023/07/09 10:19:39;;;;;;;;;;;24.30;99.90;;;;;;4588224;19;19941;-29
2023/07/09 10:21:14;;;;;;;;;;;24.30;99.90;;;;;;4588483;19;20372;-25
2023/07/09 10:22:45;;;;;;;;;;;24.30;99.90;;;;;;4587872;19;19918;-29
2023/07/09 10:24:34;;;;;;;;;;;24.30;99.90;;;;;;4588384;19;19944;-28
2023/07/09 10:26:13;;;;;;;;;;;24.30;99.90;;;;;;4587525;19;19911;-25
2023/07/09 10:28:00;;;;;;;;;;;24.30;99.90;;;;;;4588204;19;19931;-24
2023/07/09 10:29:38;;;;;;;;;;;24.20;99.90;;;;;;4588825;19;19919;-25
2023/07/09 11:01:33;;;;;;;;;;;24.20;99.90;;;;;;4592563;19;19971;-30
2023/07/09 11:03:23;;;;;;;;;;;24.20;99.90;;;;;;4593868;19;20375;-25
2023/07/09 11:04:57;;;;;;;;;;;24.20;99.90;;;;;;4593179;19;19970;-27
2023/07/09 11:07:02;;;;;;;;;;;24.30;99.90;;;;;;4593066;19;20239;-29
2023/07/09 11:08:34;;;;;;;;;;;24.20;99.90;;;;;;4593159;19;19974;-28
2023/07/09 11:10:07;;;;;;;;;;;24.20;99.90;;;;;;4593215;19;19914;-25
2023/07/09 11:11:42;;;;;;;;;;;24.20;99.90;;;;;;4593395;19;19950;-25
2023/07/09 11:13:15;;;;;;;;;;;24.20;99.90;;;;;;4593248;19;20614;-25
2023/07/09 11:14:50;;;;;;;;;;;24.10;99.90;;;;;;4594154;19;19990;-26
2023/07/09 11:16:25;;;;;;;;;;;24.10;99.90;;;;;;4594371;19;19921;-27
2023/07/09 11:17:57;;;;;;;;;;;24.00;99.90;;;;;;4594351;19;19922;-27
2023/07/09 11:19:28;;;;;;;;;;;23.90;99.90;;;;;;4593395;19;19915;-27
2023/07/09 11:21:06;;;;;;;;;;;24.00;99.90;;;;;;4593518;19;19935;-26
2023/07/09 11:22:39;;;;;;;;;;;24.10;99.90;;;;;;4593204;19;19931;-25
2023/07/09 11:24:26;;;;;;;;;;;24.20;99.90;;;;;;4593008;19;20342;-27
2023/07/09 11:26:01;;;;;;;;;;;24.30;99.90;;;;;;4592679;19;19930;-28
2023/07/09 11:27:33;;;;;;;;;;;24.40;99.90;;;;;;4594313;19;20295;-25
2023/07/09 11:29:04;;;;;;;;;;;24.50;99.90;;;;;;4594045;19;19915;-25
2023/07/09 11:30:46;;;;;;;;;;;24.60;99.90;;;;;;4593890;19;19931;-25
2023/07/09 11:32:18;;;;;;;;;;;24.70;99.90;;;;;;4593648;19;19925;-25
2023/07/09 11:33:56;;;;;;;;;;;24.60;99.90;;;;;;4594509;19;19925;-25
2023/07/09 11:35:50;;;;;;;;;;;24.60;99.90;;;;;;4594379;19;19914;-24
2023/07/09 11:37:24;;;;;;;;;;;24.60;99.90;;;;;;4594082;19;19934;-25
2023/07/09 11:38:57;;;;;;;;;;;24.70;99.90;;;;;;4592740;19;19918;-27
2023/07/09 11:40:28;;;;;;;;;;;24.80;99.90;;;;;;4593632;19;19989;-27
2023/07/09 11:41:59;;;;;;;;;;;24.80;99.90;;;;;;4593218;19;20312;-28
2023/07/09 11:43:34;;;;;;;;;;;24.80;99.90;;;;;;4594067;19;20312;-24
2023/07/09 11:45:09;;;;;;;;;;;24.90;99.90;;;;;;4593778;19;19916;-25
2023/07/09 11:46:49;;;;;;;;;;;24.90;99.90;;;;;;4591521;19;19918;-26
2023/07/09 11:48:24;;;;;;;;;;;24.90;99.90;;;;;;4592636;19;19943;-27
2023/07/09 11:50:06;;;;;;;;;;;24.90;99.90;;;;;;4592516;19;20321;-26
2023/07/09 11:51:40;;;;;;;;;;;24.90;99.90;;;;;;4591967;19;19938;-25
2023/07/09 11:53:17;;;;;;;;;;;24.90;99.90;;;;;;4591591;19;19921;-31
2023/07/09 11:54:55;;;;;;;;;;;24.90;99.90;;;;;;4593603;19;19928;-25
2023/07/09 11:56:27;;;;;;;;;;;24.80;99.90;;;;;;4592980;19;19998;-28
2023/07/09 11:58:01;;;;;;;;;;;24.80;99.90;;;;;;4590591;19;20277;-27
2023/07/09 11:59:37;;;;;;;;;;;24.80;99.90;;;;;;4591932;19;19927;-25
2023/07/09 12:01:12;;;;;;;;;;;24.70;99.90;;;;;;4591292;19;19922;-27
2023/07/09 12:02:46;;;;;;;;;;;24.70;99.90;;;;;;4592006;19;20252;-26
2023/07/09 12:04:17;;;;;;;;;;;24.60;99.90;;;;;;4592704;19;19922;-28
2023/07/09 12:06:12;;;;;;;;;;;24.60;99.90;;;;;;4593193;19;19915;-25
2023/07/09 12:07:42;;;;;;;;;;;24.60;99.90;;;;;;4591017;19;20019;-27
2023/07/09 12:09:14;;;;;;;;;;;24.60;99.90;;;;;;4591303;19;19918;-26
2023/07/09 12:10:45;;;;;;;;;;;24.60;99.90;;;;;;4591553;19;19922;-25
2023/07/09 12:12:20;;;;;;;;;;;24.60;99.90;;;;;;4590973;19;20246;-29
2023/07/09 12:13:53;;;;;;;;;;;24.60;99.90;;;;;;4590847;19;19919;-27
2023/07/09 12:15:25;;;;;;;;;;;24.60;99.90;;;;;;4591295;19;19930;-25
2023/07/09 12:16:57;;;;;;;;;;;24.60;99.90;;;;;;4591374;19;19927;-25
2023/07/09 12:18:29;;;;;;;;;;;24.60;99.90;;;;;;4590879;19;19922;-25
2023/07/09 12:20:01;;;;;;;;;;;24.60;99.90;;;;;;4590905;19;19914;-28
2023/07/09 12:21:33;;;;;;;;;;;24.60;99.90;;;;;;4591288;19;19970;-27
2023/07/09 12:23:11;;;;;;;;;;;24.60;99.90;;;;;;4590862;19;19967;-25
2023/07/09 12:29:30;;;;;;;;;;;24.60;99.90;;;;;;4589392;19;19911;-25
2023/07/09 12:31:02;;;;;;;;;;;24.60;99.90;;;;;;4590424;19;20273;-28
2023/07/09 12:32:33;;;;;;;;;;;24.50;99.90;;;;;;4590648;19;19928;-25
2023/07/09 12:34:04;;;;;;;;;;;24.50;99.90;;;;;;4590370;19;19915;-30
2023/07/09 12:35:35;;;;;;;;;;;24.50;99.90;;;;;;4591160;19;19922;-29
2023/07/09 12:37:25;;;;;;;;;;;24.40;99.90;;;;;;4590291;19;19915;-30
2023/07/09 12:39:02;;;;;;;;;;;24.40;99.90;;;;;;4590754;19;19986;-29
2023/07/09 12:40:35;;;;;;;;;;;24.50;99.90;;;;;;4590261;19;20263;-26
2023/07/09 12:42:09;;;;;;;;;;;24.50;99.90;;;;;;4590297;19;19929;-27
2023/07/09 12:43:40;;;;;;;;;;;24.50;99.90;;;;;;4590297;19;19978;-26
2023/07/09 12:45:16;;;;;;;;;;;24.60;99.90;;;;;;4591686;19;20336;-31
2023/07/09 12:46:48;;;;;;;;;;;24.50;99.90;;;;;;4592155;19;19915;-25
2023/07/09 12:48:20;;;;;;;;;;;24.60;99.90;;;;;;4591609;19;19915;-29
2023/07/09 12:49:51;;;;;;;;;;;24.60;99.90;;;;;;4591292;19;19946;-25
2023/07/09 12:51:27;;;;;;;;;;;24.60;99.90;;;;;;4591268;19;19907;-25
2023/07/09 12:53:02;;;;;;;;;;;24.50;99.90;;;;;;4590596;19;19925;-30
2023/07/09 12:54:34;;;;;;;;;;;24.40;99.90;;;;;;4591689;19;20006;-29
2023/07/09 12:56:10;;;;;;;;;;;24.40;99.90;;;;;;4591646;19;19918;-29
2023/07/09 12:57:41;;;;;;;;;;;24.40;99.90;;;;;;4592649;19;20331;-30
2023/07/09 12:59:17;;;;;;;;;;;24.30;99.90;;;;;;4591091;19;19922;-25
2023/07/09 13:00:51;;;;;;;;;;;24.30;99.90;;;;;;4591586;19;19910;-29
2023/07/09 13:02:25;;;;;;;;;;;24.40;99.90;;;;;;4591192;19;20400;-25
2023/07/09 13:03:56;;;;;;;;;;;24.40;99.90;;;;;;4592377;19;19921;-28
2023/07/09 13:05:27;;;;;;;;;;;24.40;99.90;;;;;;4591230;19;19922;-27
2023/07/09 13:06:59;;;;;;;;;;;24.50;99.90;;;;;;4590322;19;19991;-29
2023/07/09 13:08:31;;;;;;;;;;;24.50;99.90;;;;;;4590870;19;20236;-27
2023/07/09 13:10:06;;;;;;;;;;;24.40;99.90;;;;;;4590682;19;19915;-25
2023/07/09 13:11:39;;;;;;;;;;;24.40;99.90;;;;;;4590751;19;20248;-27
2023/07/09 13:13:15;;;;;;;;;;;24.40;99.90;;;;;;4591953;19;20335;-25
2023/07/09 13:14:52;;;;;;;;;;;24.30;99.90;;;;;;4590651;19;19926;-25
2023/07/09 13:16:24;;;;;;;;;;;24.30;99.90;;;;;;4591785;19;19915;-25
2023/07/09 13:17:58;;;;;;;;;;;24.30;99.90;;;;;;4590653;19;19915;-24
2023/07/09 13:19:29;;;;;;;;;;;24.40;99.90;;;;;;4590741;19;20249;-25
2023/07/09 13:21:00;;;;;;;;;;;24.40;99.90;;;;;;4591334;19;19971;-27
2023/07/09 13:22:31;;;;;;;;;;;24.40;99.90;;;;;;4592116;19;19934;-30
2023/07/09 13:24:19;;;;;;;;;;;24.40;99.90;;;;;;4591665;19;19915;-29
2023/07/09 13:25:51;;;;;;;;;;;24.40;99.90;;;;;;4592122;19;19931;-28
2023/07/09 13:27:27;;;;;;;;;;;24.40;99.90;;;;;;4591535;19;19991;-29
2023/07/09 13:30:50;;;;;;;;;;;24.40;99.90;;;;;;4591376;19;19939;-26
2023/07/09 13:32:20;;;;;;;;;;;24.30;99.90;;;;;;4592133;19;19926;-26
2023/07/09 13:33:56;;;;;;;;;;;24.20;99.90;;;;;;4590762;19;19925;-25
2023/07/09 13:35:27;;;;;;;;;;;24.30;99.90;;;;;;4590475;19;20288;-26
2023/07/09 13:36:58;;;;;;;;;;;24.30;99.90;;;;;;4591247;19;19922;-24
2023/07/09 13:38:30;;;;;;;;;;;24.30;99.90;;;;;;4591813;19;19926;-25
2023/07/09 13:40:01;;;;;;;;;;;24.20;99.90;;;;;;4590279;19;19989;-28
2023/07/09 13:41:32;;;;;;;;;;;24.20;99.90;;;;;;4590997;19;19950;-25
2023/07/09 13:43:07;;;;;;;;;;;24.20;99.90;;;;;;4590518;19;19915;-25
2023/07/09 13:44:38;;;;;;;;;;;24.30;99.90;;;;;;4591689;19;19918;-28
2023/07/09 13:46:10;;;;;;;;;;;24.30;99.90;;;;;;4590770;19;19914;-25
2023/07/09 13:47:41;;;;;;;;;;;24.30;99.90;;;;;;4590284;19;19926;-25
2023/07/09 13:49:13;;;;;;;;;;;24.40;99.90;;;;;;4591060;19;19918;-25
2023/07/09 13:50:44;;;;;;;;;;;24.40;99.90;;;;;;4591454;19;20292;-28
2023/07/09 13:52:20;;;;;;;;;;;24.40;99.90;;;;;;4590859;19;19923;-28
2023/07/09 13:53:51;;;;;;;;;;;24.40;99.90;;;;;;4591557;19;19992;-29
2023/07/09 13:55:23;;;;;;;;;;;24.40;99.90;;;;;;4591231;19;19925;-25
2023/07/09 13:56:54;;;;;;;;;;;24.40;99.90;;;;;;4590713;19;19911;-28
2023/07/09 13:58:26;;;;;;;;;;;24.20;99.90;;;;;;4590048;19;19982;-29
2023/07/09 13:59:57;;;;;;;;;;;24.20;99.90;;;;;;4590539;19;19918;-25
2023/07/09 14:01:30;;;;;;;;;;;24.20;99.90;;;;;;4592169;19;20006;-25
2023/07/09 14:03:01;;;;;;;;;;;24.10;99.90;;;;;;4590943;19;19989;-27
2023/07/09 14:04:33;;;;;;;;;;;24.20;99.90;;;;;;4589513;19;19919;-26
2023/07/09 14:06:04;;;;;;;;;;;24.20;99.90;;;;;;4588867;19;19922;-25
2023/07/09 14:07:37;;;;;;;;;;;24.20;99.90;;;;;;4590050;19;20368;-25
2023/07/09 14:09:09;;;;;;;;;;;24.30;99.90;;;;;;4589743;19;19926;-25
2023/07/09 14:10:40;;;;;;;;;;;24.30;99.90;;;;;;4589978;19;19922;-26
2023/07/09 14:12:11;;;;;;;;;;;24.20;99.90;;;;;;4590806;19;19947;-29
2023/07/09 14:13:42;;;;;;;;;;;24.20;99.90;;;;;;4591540;19;19922;-26
2023/07/09 14:15:16;;;;;;;;;;;24.30;99.90;;;;;;4590903;19;19948;-25
2023/07/09 14:16:50;;;;;;;;;;;24.30;99.90;;;;;;4590773;19;19915;-25
2023/07/09 14:18:21;;;;;;;;;;;24.30;99.90;;;;;;4590888;19;19953;-25
2023/07/09 14:19:53;;;;;;;;;;;24.30;99.90;;;;;;4590574;19;19925;-25
2023/07/09 14:21:25;;;;;;;;;;;24.30;99.90;;;;;;4591969;19;19914;-25
2023/07/09 14:22:58;;;;;;;;;;;24.40;99.90;;;;;;4594258;19;20324;-28
2023/07/09 14:24:30;;;;;;;;;;;24.40;99.90;;;;;;4594369;19;19923;-25
2023/07/09 14:26:01;;;;;;;;;;;24.40;99.90;;;;;;4594685;19;19907;-29
2023/07/09 14:27:32;;;;;;;;;;;24.40;99.90;;;;;;4594101;19;19932;-29
2023/07/09 14:29:05;;;;;;;;;;;24.40;99.90;;;;;;4594725;19;20335;-25
2023/07/09 14:30:36;;;;;;;;;;;24.40;99.90;;;;;;4595325;19;19915;-27
2023/07/09 14:32:25;;;;;;;;;;;24.40;99.90;;;;;;4595191;19;20366;-26
2023/07/09 14:33:58;;;;;;;;;;;24.30;99.90;;;;;;4595382;19;19944;-25
2023/07/09 14:35:29;;;;;;;;;;;24.20;99.90;;;;;;4594024;19;19915;-29
2023/07/09 14:37:01;;;;;;;;;;;24.20;99.90;;;;;;4590086;19;19915;-25
2023/07/09 14:38:32;;;;;;;;;;;24.30;99.90;;;;;;4593233;19;19930;-26
2023/07/09 14:40:04;;;;;;;;;;;24.40;99.90;;;;;;4594923;19;19927;-28
2023/07/09 14:41:36;;;;;;;;;;;24.40;99.90;;;;;;4593780;19;19926;-31
2023/07/09 14:43:09;;;;;;;;;;;24.40;99.90;;;;;;4595877;19;20343;-31
2023/07/09 14:44:40;;;;;;;;;;;24.50;99.90;;;;;;4593210;19;19988;-29
2023/07/09 14:46:10;;;;;;;;;;;24.50;99.90;;;;;;4594216;19;19911;-26
2023/07/09 14:47:42;;;;;;;;;;;24.40;99.90;;;;;;4594390;19;19946;-28
2023/07/09 14:49:13;;;;;;;;;;;24.50;99.90;;;;;;4595556;19;20284;-25
2023/07/09 14:50:44;;;;;;;;;;;24.50;99.90;;;;;;4594254;19;19911;-26
2023/07/09 14:52:17;;;;;;;;;;;24.60;99.90;;;;;;4592599;19;19918;-28
2023/07/09 14:53:48;;;;;;;;;;;24.60;99.90;;;;;;4592761;19;19922;-25
2023/07/09 14:55:20;;;;;;;;;;;24.60;99.90;;;;;;4594811;19;19922;-28
2023/07/09 14:56:51;;;;;;;;;;;24.60;99.90;;;;;;4591730;19;19952;-25
2023/07/09 14:58:23;;;;;;;;;;;24.50;99.90;;;;;;4594344;19;19929;-31
2023/07/09 14:59:54;;;;;;;;;;;24.50;99.90;;;;;;4594544;19;20011;-25
2023/07/09 15:01:25;;;;;;;;;;;24.40;99.90;;;;;;4594240;19;19922;-29
2023/07/09 15:02:56;;;;;;;;;;;24.40;99.90;;;;;;4593864;19;19926;-25
2023/07/09 15:04:28;;;;;;;;;;;24.50;99.90;;;;;;4594705;19;19915;-25
2023/07/09 15:06:02;;;;;;;;;;;24.60;99.90;;;;;;4591867;19;20008;-27
2023/07/09 15:07:33;;;;;;;;;;;24.60;99.90;;;;;;4592586;19;20352;-25
2023/07/09 15:09:04;;;;;;;;;;;24.60;99.90;;;;;;4593166;19;19942;-25
2023/07/09 15:10:36;;;;;;;;;;;24.70;99.90;;;;;;4591899;19;19923;-24
2023/07/09 15:12:18;;;;;;;;;;;24.70;99.90;;;;;;4594490;19;19915;-26
2023/07/09 15:13:49;;;;;;;;;;;24.70;99.90;;;;;;4592274;19;19915;-25
2023/07/09 15:15:23;;;;;;;;;;;24.70;99.90;;;;;;4594298;19;19923;-28
2023/07/09 15:16:54;;;;;;;;;;;24.70;99.90;;;;;;4593195;19;19934;-25
2023/07/09 15:18:25;;;;;;;;;;;24.80;99.90;;;;;;4594384;19;19918;-26
2023/07/09 15:19:57;;;;;;;;;;;24.80;99.90;;;;;;4592976;19;19926;-25
2023/07/09 15:21:28;;;;;;;;;;;24.70;99.90;;;;;;4594360;19;19948;-25
2023/07/09 15:22:59;;;;;;;;;;;24.80;99.90;;;;;;4592805;19;19918;-25
2023/07/09 15:24:34;;;;;;;;;;;24.80;99.90;;;;;;4592574;19;20249;-25
2023/07/09 15:26:08;;;;;;;;;;;24.80;99.90;;;;;;4593451;19;19925;-25
2023/07/09 15:27:39;;;;;;;;;;;24.70;99.90;;;;;;4592543;19;19919;-31
2023/07/09 15:29:14;;;;;;;;;;;24.70;99.90;;;;;;4593907;19;19919;-30
2023/07/09 15:30:45;;;;;;;;;;;24.70;99.90;;;;;;4594386;19;20286;-25
2023/07/09 15:32:16;;;;;;;;;;;24.70;99.90;;;;;;4594744;19;20431;-25
2023/07/09 15:33:47;;;;;;;;;;;24.70;99.90;;;;;;4591817;19;20345;-30
2023/07/09 15:35:18;;;;;;;;;;;24.70;99.90;;;;;;4593125;19;19938;-24
2023/07/09 15:36:50;;;;;;;;;;;24.70;99.90;;;;;;4592521;19;19925;-25
2023/07/09 15:38:25;;;;;;;;;;;24.70;99.90;;;;;;4594309;19;20362;-25
2023/07/09 15:39:56;;;;;;;;;;;24.70;99.90;;;;;;4594029;19;20607;-26
2023/07/09 15:41:27;;;;;;;;;;;24.80;99.90;;;;;;4594582;19;19915;-29
2023/07/09 15:43:00;;;;;;;;;;;24.80;99.90;;;;;;4593564;19;19942;-32
2023/07/09 15:44:31;;;;;;;;;;;24.80;99.90;;;;;;4591259;19;19922;-26
2023/07/09 15:46:02;;;;;;;;;;;24.80;99.90;;;;;;4593606;19;19915;-29
2023/07/09 15:47:36;;;;;;;;;;;24.80;99.90;;;;;;4593142;19;20466;-26
2023/07/09 15:49:07;;;;;;;;;;;24.70;99.90;;;;;;4592670;19;19926;-29
2023/07/09 15:50:38;;;;;;;;;;;24.70;99.90;;;;;;4593301;19;19914;-25
2023/07/09 15:52:09;;;;;;;;;;;24.60;99.90;;;;;;4593320;19;19918;-25
2023/07/09 15:53:40;;;;;;;;;;;24.50;99.90;;;;;;4591523;19;19962;-26
2023/07/09 15:57:30;;;;;;;;;;;24.60;99.90;;;;;;4593983;19;19919;-25
2023/07/09 15:59:01;;;;;;;;;;;24.60;99.90;;;;;;4593500;19;19978;-29
2023/07/09 16:02:30;;;;;;;;;;;24.50;99.90;;;;;;4593049;19;19932;-29
2023/07/09 16:04:08;;;;;;;;;;;24.60;99.90;;;;;;4593288;19;19923;-25
2023/07/09 16:05:39;;;;;;;;;;;24.80;99.90;;;;;;4592423;19;20332;-27
2023/07/09 16:07:11;;;;;;;;;;;24.90;99.90;;;;;;4591109;19;19919;-26
2023/07/09 16:08:42;;;;;;;;;;;25.00;99.90;;;;;;4592120;19;20352;-25
2023/07/09 16:10:13;;;;;;;;;;;25.10;99.90;;;;;;4593041;19;19926;-25
2023/07/09 16:11:45;;;;;;;;;;;25.20;99.90;;;;;;4591721;19;19989;-25
2023/07/09 16:13:17;;;;;;;;;;;25.30;99.90;;;;;;4592306;19;20336;-25
2023/07/09 16:14:48;;;;;;;;;;;25.30;99.90;;;;;;4592685;19;19922;-24
2023/07/09 16:16:20;;;;;;;;;;;25.30;99.90;;;;;;4591171;19;19922;-25
2023/07/09 16:17:51;;;;;;;;;;;25.40;99.90;;;;;;4593352;19;19941;-30
2023/07/09 16:19:23;;;;;;;;;;;25.30;99.90;;;;;;4593062;19;19961;-25
2023/07/09 16:20:55;;;;;;;;;;;25.40;99.90;;;;;;4592932;19;19922;-25
2023/07/09 16:22:26;;;;;;;;;;;25.30;99.90;;;;;;4591404;19;19930;-30
2023/07/09 16:23:59;;;;;;;;;;;25.30;99.90;;;;;;4592976;19;19930;-25
2023/07/09 16:25:32;;;;;;;;;;;25.40;99.90;;;;;;4592600;19;19929;-25
2023/07/09 16:27:04;;;;;;;;;;;25.40;99.90;;;;;;4590381;19;19918;-26
2023/07/09 16:28:34;;;;;;;;;;;25.50;99.90;;;;;;4592430;19;20327;-25
2023/07/09 16:30:13;;;;;;;;;;;25.50;99.90;;;;;;4591727;19;19922;-28
2023/07/09 16:31:44;;;;;;;;;;;25.50;99.90;;;;;;4591457;19;20010;-25
2023/07/09 16:33:15;;;;;;;;;;;25.50;99.90;;;;;;4592650;19;20017;-28
2023/07/09 16:34:46;;;;;;;;;;;25.50;99.90;;;;;;4593243;19;19974;-25
2023/07/09 16:36:17;;;;;;;;;;;25.50;99.90;;;;;;4593122;19;20248;-24
2023/07/09 16:37:48;;;;;;;;;;;25.50;99.90;;;;;;4593119;19;19923;-29
2023/07/09 16:39:35;;;;;;;;;;;25.50;99.90;;;;;;4591544;19;20568;-29
2023/07/09 16:41:08;;;;;;;;;;;25.50;99.90;;;;;;4592236;19;20263;-25
2023/07/09 16:42:38;;;;;;;;;;;25.50;99.90;;;;;;4591202;19;19918;-25
2023/07/09 16:44:10;;;;;;;;;;;25.50;99.90;;;;;;4591917;19;19919;-27
2023/07/09 16:45:41;;;;;;;;;;;25.50;99.90;;;;;;4591719;19;19942;-28
2023/07/09 16:47:18;;;;;;;;;;;25.50;99.90;;;;;;4589682;19;19914;-24
2023/07/09 16:48:50;;;;;;;;;;;25.40;99.90;;;;;;4592244;19;19946;-24
2023/07/09 16:50:21;;;;;;;;;;;25.50;99.90;;;;;;4591275;19;19925;-25
2023/07/09 16:51:53;;;;;;;;;;;25.40;99.90;;;;;;4591961;19;19931;-25
2023/07/09 16:53:25;;;;;;;;;;;25.40;99.90;;;;;;4590632;19;19942;-25
2023/07/09 16:54:57;;;;;;;;;;;25.40;99.90;;;;;;4591328;19;19922;-25
2023/07/09 16:56:28;;;;;;;;;;;25.40;99.90;;;;;;4592230;19;19978;-27
2023/07/09 16:58:00;;;;;;;;;;;25.40;99.90;;;;;;4590187;19;19923;-28
2023/07/09 16:59:31;;;;;;;;;;;25.50;99.90;;;;;;4592816;19;20010;-25
2023/07/09 17:01:02;;;;;;;;;;;25.40;99.90;;;;;;4591359;19;19918;-24
2023/07/09 17:02:34;;;;;;;;;;;25.30;99.90;;;;;;4592685;19;19918;-25
2023/07/09 17:04:24;;;;;;;;;;;25.30;99.90;;;;;;4589237;19;20334;-29
2023/07/09 17:05:55;;;;;;;;;;;25.30;99.90;;;;;;4590053;19;20292;-25
2023/07/09 17:07:26;;;;;;;;;;;25.30;99.90;;;;;;4591910;19;19923;-25
2023/07/09 17:08:57;;;;;;;;;;;25.30;99.90;;;;;;4591671;19;19949;-24
2023/07/09 17:10:28;;;;;;;;;;;25.30;99.90;;;;;;4592530;19;20447;-29
2023/07/09 17:11:59;;;;;;;;;;;25.30;99.90;;;;;;4590407;19;19966;-27
2023/07/09 17:13:31;;;;;;;;;;;25.30;99.90;;;;;;4592467;19;19918;-29
2023/07/09 17:15:42;;;;;;;;;;;25.30;99.90;;;;;;4591174;19;19911;-25
2023/07/09 17:17:16;;;;;;;;;;;25.30;99.90;;;;;;4590124;19;19925;-28
2023/07/09 17:18:47;;;;;;;;;;;25.10;99.90;;;;;;4588908;19;19931;-32
2023/07/09 17:20:18;;;;;;;;;;;24.90;99.90;;;;;;4589532;19;19915;-28
2023/07/09 17:21:50;;;;;;;;;;;24.80;99.90;;;;;;4589941;19;19927;-26
2023/07/09 17:23:23;;;;;;;;;;;24.60;99.90;;;;;;4588817;19;19965;-24
2023/07/09 17:24:54;;;;;;;;;;;24.60;99.90;;;;;;4590094;19;19926;-29
2023/07/09 17:26:25;;;;;;;;;;;24.60;99.90;;;;;;4587682;19;19922;-24
2023/07/09 17:30:20;;;;;;;;;;;24.80;99.90;;;;;;4589857;19;19998;-25
2023/07/09 17:31:51;;;;;;;;;;;25.00;99.90;;;;;;4589584;19;19911;-24
2023/07/09 17:33:22;;;;;;;;;;;25.20;99.90;;;;;;4589154;19;20387;-24
2023/07/09 17:34:53;;;;;;;;;;;25.30;99.90;;;;;;4588950;19;19923;-28
2023/07/09 17:36:25;;;;;;;;;;;25.40;99.90;;;;;;4588667;19;19924;-27
2023/07/09 17:37:57;;;;;;;;;;;25.60;99.90;;;;;;4590015;19;19994;-25
2023/07/09 17:39:28;;;;;;;;;;;25.60;99.90;;;;;;4588615;19;20341;-25
2023/07/09 17:40:59;;;;;;;;;;;23.90;99.90;;;;;;4589922;19;20360;-27
2023/07/09 17:44:21;;;;;;;;;;;22.10;99.90;;;;;;4588096;19;20333;-28
2023/07/09 17:45:53;;;;;;;;;;;21.70;99.90;;;;;;4588830;19;19919;-25
2023/07/09 17:47:24;;;;;;;;;;;21.50;99.90;;;;;;4586942;19;19934;-25
2023/07/09 17:48:55;;;;;;;;;;;21.40;99.90;;;;;;4589838;19;20323;-25
2023/07/09 17:50:45;;;;;;;;;;;21.30;99.90;;;;;;4589430;19;19915;-25
2023/07/09 17:52:35;;;;;;;;;;;21.30;99.90;;;;;;4589802;19;19915;-28
2023/07/09 17:54:22;;;;;;;;;;;21.30;99.90;;;;;;4590705;19;20366;-25
2023/07/09 17:55:53;;;;;;;;;;;21.30;99.90;;;;;;4590051;19;19946;-25
2023/07/09 17:57:25;;;;;;;;;;;21.30;99.90;;;;;;4590640;19;20523;-29
2023/07/09 17:58:55;;;;;;;;;;;21.30;99.90;;;;;;4589344;19;19945;-29
2023/07/09 18:00:27;;;;;;;;;;;21.30;99.90;;;;;;4589820;19;19926;-25
2023/07/09 18:02:14;;;;;;;;;;;21.30;99.90;;;;;;4590517;19;19927;-28
2023/07/09 18:03:45;;;;;;;;;;;21.30;99.90;;;;;;4589161;19;19941;-29
2023/07/09 18:05:23;;;;;;;;;;;21.30;99.90;;;;;;4590235;19;20343;-25
2023/07/09 18:06:54;;;;;;;;;;;21.30;99.90;;;;;;4589224;19;19922;-28
2023/07/09 18:08:25;;;;;;;;;;;21.30;99.90;;;;;;4590411;19;19922;-27
2023/07/09 18:09:57;;;;;;;;;;;21.30;99.90;;;;;;4590631;19;19914;-25
2023/07/09 18:11:28;;;;;;;;;;;21.30;99.90;;;;;;4591222;19;19911;-25
2023/07/09 18:13:03;;;;;;;;;;;21.30;99.90;;;;;;4590159;19;19929;-25
2023/07/09 18:14:36;;;;;;;;;;;21.30;99.90;;;;;;4591282;19;19937;-28
2023/07/09 18:16:07;;;;;;;;;;;21.30;99.90;;;;;;4589642;19;19914;-25
2023/07/09 18:17:40;;;;;;;;;;;21.30;99.90;;;;;;4588099;19;19919;-25
2023/07/09 18:19:18;;;;;;;;;;;21.30;99.90;;;;;;4590937;19;19939;-25
2023/07/09 18:20:48;;;;;;;;;;;21.30;99.90;;;;;;4589505;19;20379;-25
2023/07/09 18:22:20;;;;;;;;;;;21.30;99.90;;;;;;4590765;19;19966;-27
2023/07/09 18:23:51;;;;;;;;;;;21.30;99.90;;;;;;4590582;19;19919;-25
2023/07/09 18:25:22;;;;;;;;;;;21.30;99.90;;;;;;4590737;19;20340;-28
2023/07/09 18:26:54;;;;;;;;;;;21.30;99.90;;;;;;4590784;19;19982;-25
2023/07/09 18:28:30;;;;;;;;;;;21.30;99.90;;;;;;4591425;19;19915;-27
2023/07/09 18:30:02;;;;;;;;;;;21.30;99.90;;;;;;4590438;19;19925;-25
2023/07/09 18:31:34;;;;;;;;;;;21.20;99.90;;;;;;4592768;19;19919;-25
2023/07/09 18:33:05;;;;;;;;;;;21.20;99.90;;;;;;4590844;19;19918;-25
2023/07/09 18:34:37;;;;;;;;;;;21.30;99.90;;;;;;4590975;19;19915;-25
2023/07/09 18:36:08;;;;;;;;;;;21.20;99.90;;;;;;4590710;19;19923;-25
2023/07/09 18:37:40;;;;;;;;;;;21.20;99.90;;;;;;4590401;19;19919;-25
2023/07/09 18:39:11;;;;;;;;;;;21.20;99.90;;;;;;4590744;19;19974;-25
2023/07/09 18:40:43;;;;;;;;;;;21.20;99.90;;;;;;4586760;19;19926;-25
2023/07/09 18:42:15;;;;;;;;;;;21.20;99.90;;;;;;4588703;19;20239;-26
2023/07/09 18:43:46;;;;;;;;;;;21.10;99.90;;;;;;4590398;19;19967;-25
2023/07/09 18:45:18;;;;;;;;;;;21.10;99.90;;;;;;4589874;19;19931;-29